Time;durP1;ratioP1;P1;durP2;ratioP2;P2;SDS_P1;SDS_P2;PMS_P1;PMS_P2;Temp;Humidity;BMP_temperature;BMP_pressure;BME280_temperature;BME280_humidity;BME280_pressure;Samples;Min_cycle;Max_cycle;Signal;HPM_P1;HPM_P2
2021/08/25 00:02:11;;;;;;;8.10;4.53;;;14.30;99.90;;;;;;4989006;28;20362;-71
2021/08/25 00:04:39;;;;;;;7.80;4.38;;;14.30;99.90;;;;;;4994359;28;20201;-72
2021/08/25 00:07:09;;;;;;;10.43;4.88;;;14.20;99.90;;;;;;4982409;28;20202;-72
2021/08/25 00:09:38;;;;;;;9.52;4.57;;;14.20;99.90;;;;;;4987173;28;20198;-71
2021/08/25 00:12:06;;;;;;;5.47;4.10;;;14.10;99.90;;;;;;4987548;28;20198;-71
2021/08/25 00:14:35;;;;;;;8.10;4.05;;;14.00;99.90;;;;;;4991573;28;20198;-70
2021/08/25 00:17:03;;;;;;;8.70;4.70;;;13.90;99.90;;;;;;4983516;28;20611;-70
2021/08/25 00:19:30;;;;;;;9.70;3.75;;;13.70;99.90;;;;;;4987686;28;20202;-70
2021/08/25 00:21:57;;;;;;;6.00;4.15;;;13.70;99.90;;;;;;4986415;28;20435;-70
2021/08/25 00:24:24;;;;;;;5.75;4.30;;;13.70;99.90;;;;;;4983990;28;20489;-71
2021/08/25 00:26:51;;;;;;;12.32;3.95;;;13.70;99.90;;;;;;4998203;28;20547;-71
2021/08/25 00:29:18;;;;;;;6.93;5.05;;;13.60;99.90;;;;;;4984362;28;20241;-70
2021/08/25 00:31:45;;;;;;;5.60;3.65;;;13.60;99.90;;;;;;4984644;28;20260;-71
2021/08/25 00:34:13;;;;;;;5.25;3.50;;;13.60;99.90;;;;;;4985642;28;20226;-70
2021/08/25 00:36:40;;;;;;;5.65;4.40;;;13.60;99.90;;;;;;4991685;28;20198;-70
2021/08/25 00:39:07;;;;;;;6.03;4.70;;;13.50;99.90;;;;;;4979174;28;20408;-70
2021/08/25 00:41:34;;;;;;;7.55;4.25;;;13.60;99.90;;;;;;4980392;28;20476;-70
2021/08/25 00:44:01;;;;;;;7.05;3.60;;;13.60;99.90;;;;;;4998017;28;20288;-70
2021/08/25 00:46:30;;;;;;;6.68;5.43;;;13.70;99.90;;;;;;4982741;28;20405;-69
2021/08/25 00:48:58;;;;;;;6.05;4.05;;;13.70;99.90;;;;;;4989468;28;20425;-69
2021/08/25 00:51:25;;;;;;;5.40;3.28;;;13.60;99.90;;;;;;4978133;28;20202;-71
2021/08/25 00:53:53;;;;;;;7.55;4.63;;;13.70;99.90;;;;;;4991772;28;20389;-71
2021/08/25 00:56:24;;;;;;;6.82;4.00;;;13.60;99.90;;;;;;4990525;28;20662;-71
2021/08/25 00:58:51;;;;;;;15.10;4.72;;;13.70;99.90;;;;;;4991112;28;20300;-69
2021/08/25 01:01:36;;;;;;;5.00;4.25;;;13.60;99.90;;;;;;4989225;28;20384;-70
2021/08/25 01:04:17;;;;;;;5.72;3.60;;;13.60;99.90;;;;;;4991608;28;20425;-72
2021/08/25 01:06:45;;;;;;;8.02;4.65;;;13.50;99.90;;;;;;4976823;28;20206;-70
2021/08/25 01:09:12;;;;;;;10.13;4.85;;;13.50;99.90;;;;;;4984085;28;20198;-71
2021/08/25 01:11:44;;;;;;;7.55;4.85;;;13.50;99.90;;;;;;4997073;28;20494;-70
2021/08/25 01:14:11;;;;;;;5.88;3.63;;;13.40;99.90;;;;;;4990153;28;20284;-71
2021/08/25 01:16:40;;;;;;;6.18;4.10;;;13.50;99.90;;;;;;4996819;28;20205;-72
2021/08/25 01:19:16;;;;;;;6.65;4.03;;;13.40;99.90;;;;;;4991261;28;20261;-71
2021/08/25 01:21:45;;;;;;;6.47;4.57;;;13.50;99.90;;;;;;4989995;28;20240;-71
2021/08/25 01:24:13;;;;;;;9.75;4.63;;;13.60;99.90;;;;;;4996492;28;20266;-70
2021/08/25 01:26:42;;;;;;;6.50;3.75;;;13.60;99.90;;;;;;4976217;28;20249;-71
2021/08/25 01:29:27;;;;;;;5.57;4.30;;;13.60;99.90;;;;;;4976104;28;20439;-71
2021/08/25 01:31:54;;;;;;;4.65;3.55;;;13.60;99.90;;;;;;4983421;28;20229;-70
2021/08/25 01:34:21;;;;;;;7.07;3.95;;;13.50;99.90;;;;;;4983733;28;20226;-71
2021/08/25 01:36:53;;;;;;;7.05;3.67;;;13.20;99.90;;;;;;4982288;28;20197;-69
2021/08/25 01:39:20;;;;;;;7.70;3.75;;;13.10;99.90;;;;;;4996834;28;20531;-70
2021/08/25 01:41:48;;;;;;;8.20;4.10;;;13.00;99.90;;;;;;4996479;28;20247;-70
2021/08/25 01:44:15;;;;;;;4.40;3.45;;;13.00;99.90;;;;;;4997170;28;20256;-71
2021/08/25 01:46:43;;;;;;;5.60;3.15;;;13.10;99.90;;;;;;4982284;28;20209;-69
2021/08/25 01:49:13;;;;;;;3.83;3.42;;;13.20;99.90;;;;;;4996778;28;20444;-71
2021/08/25 01:51:41;;;;;;;4.25;3.83;;;13.10;99.90;;;;;;4994876;28;20364;-69
2021/08/25 01:54:08;;;;;;;8.25;4.60;;;13.00;99.90;;;;;;4994394;28;20198;-71
2021/08/25 01:56:39;;;;;;;5.25;4.20;;;13.00;99.90;;;;;;4992618;28;20399;-71
2021/08/25 01:59:07;;;;;;;6.00;3.47;;;13.20;99.90;;;;;;4995194;28;20229;-71
2021/08/25 02:01:34;;;;;;;7.47;4.03;;;13.10;99.90;;;;;;4989578;28;20389;-70
2021/08/25 02:04:02;;;;;;;5.45;3.95;;;12.90;99.90;;;;;;4990867;28;20268;-70
2021/08/25 02:06:29;;;;;;;5.38;4.10;;;12.90;99.90;;;;;;4977322;28;20224;-71
2021/08/25 02:08:57;;;;;;;5.57;3.88;;;13.00;99.90;;;;;;4974839;28;20263;-70
2021/08/25 02:11:24;;;;;;;4.40;3.95;;;12.90;99.90;;;;;;4976777;28;20209;-70
2021/08/25 02:13:53;;;;;;;7.40;4.07;;;12.90;99.90;;;;;;4985314;28;20233;-71
2021/08/25 02:16:20;;;;;;;6.25;3.58;;;13.00;99.90;;;;;;4990830;28;20499;-71
2021/08/25 02:18:47;;;;;;;10.10;3.45;;;12.80;99.90;;;;;;4986543;28;20532;-70
2021/08/25 02:21:14;;;;;;;5.13;3.33;;;12.90;99.90;;;;;;4988859;28;20198;-70
2021/08/25 02:23:42;;;;;;;7.32;4.05;;;12.80;99.90;;;;;;4978101;28;20224;-70
2021/08/25 02:26:16;;;;;;;7.35;4.70;;;12.80;99.90;;;;;;4978847;28;20248;-70
2021/08/25 02:28:48;;;;;;;6.30;4.25;;;12.90;99.90;;;;;;4976668;28;20213;-70
2021/08/25 02:31:16;;;;;;;6.72;3.95;;;12.90;99.90;;;;;;4992185;28;20400;-69
2021/08/25 02:33:44;;;;;;;7.25;3.58;;;13.10;99.90;;;;;;4989689;28;20233;-69
2021/08/25 02:36:11;;;;;;;6.45;4.18;;;13.20;99.90;;;;;;4980516;28;20198;-70
2021/08/25 02:38:39;;;;;;;4.35;3.33;;;13.30;99.90;;;;;;4995348;28;20220;-70
2021/08/25 02:41:10;;;;;;;9.52;4.15;;;13.30;99.90;;;;;;4994522;28;20202;-70
2021/08/25 02:43:37;;;;;;;11.45;3.85;;;13.30;99.90;;;;;;4992939;28;20476;-70
2021/08/25 02:46:05;;;;;;;8.05;3.60;;;13.20;99.90;;;;;;4985666;28;20527;-70
2021/08/25 02:48:32;;;;;;;5.63;3.17;;;13.00;99.90;;;;;;4989272;28;20221;-70
2021/08/25 02:50:59;;;;;;;3.72;2.92;;;12.80;99.90;;;;;;4988649;28;20547;-70
2021/08/25 02:53:26;;;;;;;4.15;3.28;;;12.80;99.90;;;;;;4981025;28;20381;-70
2021/08/25 02:55:53;;;;;;;5.38;3.22;;;12.60;99.90;;;;;;4995721;28;20197;-70
2021/08/25 02:58:20;;;;;;;10.40;4.28;;;12.50;99.90;;;;;;4991685;28;20230;-70
2021/08/25 03:00:47;;;;;;;6.20;4.20;;;12.50;99.90;;;;;;4988424;28;20204;-70
2021/08/25 03:03:14;;;;;;;5.35;3.20;;;12.70;99.90;;;;;;4985279;28;20439;-71
2021/08/25 03:05:41;;;;;;;7.00;3.63;;;12.70;99.90;;;;;;4998118;28;20204;-71
2021/08/25 03:08:08;;;;;;;11.48;4.53;;;12.50;99.90;;;;;;4999724;28;20212;-70
2021/08/25 03:10:36;;;;;;;6.03;3.40;;;12.40;99.90;;;;;;4998911;28;20525;-70
2021/08/25 03:13:03;;;;;;;5.22;3.25;;;12.20;99.90;;;;;;4999210;28;20236;-70
2021/08/25 03:15:31;;;;;;;5.15;3.22;;;12.20;99.90;;;;;;4998069;28;20201;-71
2021/08/25 03:17:58;;;;;;;6.13;4.35;;;12.10;99.90;;;;;;4989259;28;20236;-70
2021/08/25 03:20:25;;;;;;;6.65;3.42;;;12.00;99.90;;;;;;4994896;28;20208;-70
2021/08/25 03:22:52;;;;;;;5.50;3.78;;;11.90;99.90;;;;;;4985367;28;20205;-71
2021/08/25 03:25:20;;;;;;;10.00;4.38;;;11.80;99.90;;;;;;4993578;28;20208;-70
2021/08/25 03:27:47;;;;;;;5.55;3.35;;;11.80;99.90;;;;;;4990867;28;20252;-72
2021/08/25 03:30:14;;;;;;;6.57;3.65;;;11.70;99.90;;;;;;4986165;28;20204;-72
2021/08/25 03:32:41;;;;;;;10.25;3.45;;;11.70;99.90;;;;;;4988692;28;20511;-71
2021/08/25 03:35:08;;;;;;;10.35;4.50;;;11.70;99.90;;;;;;4979968;28;20415;-69
2021/08/25 03:37:38;;;;;;;10.05;4.45;;;11.80;99.90;;;;;;4979102;28;20427;-70
2021/08/25 03:40:07;;;;;;;9.82;4.22;;;11.70;99.90;;;;;;4984612;28;20298;-70
2021/08/25 03:42:34;;;;;;;9.23;4.85;;;11.80;99.90;;;;;;4992311;28;20209;-69
2021/08/25 03:45:01;;;;;;;6.15;4.05;;;11.90;99.90;;;;;;4983757;28;20204;-70
2021/08/25 03:47:29;;;;;;;15.30;4.03;;;11.90;99.90;;;;;;4993333;28;20538;-70
2021/08/25 03:49:56;;;;;;;5.50;3.67;;;11.80;99.90;;;;;;4981834;28;20444;-70
2021/08/25 03:52:23;;;;;;;9.32;4.20;;;11.80;99.90;;;;;;4985209;28;20209;-70
2021/08/25 03:54:50;;;;;;;6.07;4.18;;;11.40;99.90;;;;;;4978869;28;20555;-69
2021/08/25 03:57:17;;;;;;;8.38;4.85;;;11.40;99.90;;;;;;4987154;28;20210;-70
2021/08/25 03:59:44;;;;;;;4.70;4.00;;;11.40;99.90;;;;;;4987903;28;20269;-70
2021/08/25 04:02:12;;;;;;;10.52;5.00;;;11.60;99.90;;;;;;4998393;28;20200;-70
2021/08/25 04:04:39;;;;;;;5.47;3.95;;;11.80;99.90;;;;;;4986429;28;20205;-70
2021/08/25 04:07:06;;;;;;;5.60;4.20;;;11.90;99.90;;;;;;4992237;28;20314;-71
2021/08/25 04:09:33;;;;;;;6.45;3.92;;;11.80;99.90;;;;;;4978346;28;20617;-70
2021/08/25 04:12:00;;;;;;;4.28;3.30;;;11.90;99.90;;;;;;4981311;28;20255;-70
2021/08/25 04:14:27;;;;;;;6.72;4.72;;;11.80;99.90;;;;;;4998488;28;20255;-70
2021/08/25 04:16:54;;;;;;;12.13;5.22;;;11.80;99.90;;;;;;4995564;28;20563;-69
2021/08/25 04:19:21;;;;;;;10.50;5.07;;;12.00;99.90;;;;;;4979072;28;20229;-70
2021/08/25 04:21:48;;;;;;;6.15;4.03;;;11.80;99.90;;;;;;4991845;28;20243;-70
2021/08/25 04:24:15;;;;;;;6.18;5.28;;;11.80;99.90;;;;;;4982690;28;20388;-69
2021/08/25 04:26:42;;;;;;;12.38;4.63;;;11.70;99.90;;;;;;4985924;28;20209;-70
2021/08/25 04:29:09;;;;;;;7.90;4.65;;;11.70;99.90;;;;;;4980353;28;20204;-71
2021/08/25 04:31:36;;;;;;;7.85;4.78;;;11.70;99.90;;;;;;4986184;28;20542;-70
2021/08/25 04:34:03;;;;;;;11.02;4.65;;;11.70;99.90;;;;;;4978593;28;20224;-69
2021/08/25 04:36:30;;;;;;;9.23;4.90;;;11.60;99.90;;;;;;4990664;28;20549;-69
2021/08/25 04:38:57;;;;;;;9.23;5.90;;;11.60;99.90;;;;;;4992528;28;20538;-70
2021/08/25 04:41:24;;;;;;;8.88;5.30;;;11.80;99.90;;;;;;4987046;28;20382;-71
2021/08/25 04:43:51;;;;;;;9.93;4.28;;;11.80;99.90;;;;;;4986801;28;20615;-70
2021/08/25 04:46:18;;;;;;;9.63;4.53;;;12.00;99.90;;;;;;4978109;28;20205;-70
2021/08/25 04:48:45;;;;;;;8.32;4.70;;;12.00;99.90;;;;;;4981880;28;20235;-70
2021/08/25 04:51:13;;;;;;;12.60;5.10;;;12.00;99.90;;;;;;4988796;28;20209;-71
2021/08/25 04:53:40;;;;;;;7.60;4.70;;;11.90;99.90;;;;;;4991515;28;20208;-69
2021/08/25 04:56:07;;;;;;;7.53;4.38;;;12.10;99.90;;;;;;4987249;28;20200;-70
2021/08/25 04:58:35;;;;;;;7.97;4.30;;;12.30;99.90;;;;;;4986842;28;20532;-70
2021/08/25 05:01:06;;;;;;;7.10;4.72;;;12.60;99.90;;;;;;4993369;28;20208;-70
2021/08/25 05:03:36;;;;;;;7.03;4.95;;;12.80;99.90;;;;;;4992985;28;20369;-70
2021/08/25 05:06:11;;;;;;;5.93;4.63;;;13.00;99.90;;;;;;4987956;28;20496;-70
2021/08/25 05:08:39;;;;;;;6.28;4.68;;;13.10;99.90;;;;;;4996672;28;20205;-70
2021/08/25 05:11:08;;;;;;;7.43;4.30;;;13.30;99.90;;;;;;4987382;28;20205;-70
2021/08/25 05:13:37;;;;;;;4.90;3.88;;;13.30;99.90;;;;;;4988267;28;20255;-70
2021/08/25 05:16:12;;;;;;;7.30;5.55;;;13.40;99.90;;;;;;4987770;28;20240;-70
2021/08/25 05:18:40;;;;;;;8.48;5.10;;;13.50;99.90;;;;;;4981065;28;20409;-70
2021/08/25 05:21:08;;;;;;;8.70;4.88;;;13.70;99.90;;;;;;4985432;28;20231;-70
2021/08/25 05:23:36;;;;;;;9.65;5.78;;;13.80;99.90;;;;;;4992177;28;20201;-70
2021/08/25 05:26:05;;;;;;;7.43;4.95;;;14.00;99.90;;;;;;4977445;28;20198;-69
2021/08/25 05:28:33;;;;;;;6.95;3.97;;;14.20;99.90;;;;;;4983606;28;20224;-70
2021/08/25 05:31:01;;;;;;;8.85;5.82;;;14.30;99.90;;;;;;4987228;28;20199;-71
2021/08/25 05:33:28;;;;;;;9.07;4.63;;;14.40;99.90;;;;;;4988656;28;20529;-70
2021/08/25 05:35:55;;;;;;;8.05;4.45;;;14.40;99.90;;;;;;4979874;28;20540;-71
2021/08/25 05:38:22;;;;;;;9.63;5.35;;;14.50;99.90;;;;;;4991774;28;20421;-71
2021/08/25 05:40:49;;;;;;;5.90;4.53;;;14.50;99.90;;;;;;4989801;28;20226;-70
2021/08/25 05:43:17;;;;;;;8.18;5.68;;;14.80;99.90;;;;;;4994254;28;20246;-70
2021/08/25 05:45:45;;;;;;;7.97;4.63;;;14.90;99.90;;;;;;4992047;28;20217;-70
2021/08/25 05:48:12;;;;;;;12.52;5.35;;;14.70;99.90;;;;;;4991646;28;20216;-71
2021/08/25 05:50:39;;;;;;;6.38;5.75;;;14.60;99.90;;;;;;4993041;28;20197;-71
2021/08/25 05:53:07;;;;;;;7.53;5.40;;;14.80;99.90;;;;;;4988980;28;20198;-71
2021/08/25 05:55:34;;;;;;;12.02;5.38;;;14.90;99.90;;;;;;4989430;28;20213;-71
2021/08/25 05:58:04;;;;;;;23.48;5.72;;;15.20;99.90;;;;;;4972460;28;20520;-71
2021/08/25 06:00:31;;;;;;;9.77;5.50;;;15.40;99.90;;;;;;4978514;28;20214;-71
2021/08/25 06:02:58;;;;;;;10.52;7.07;;;15.80;99.90;;;;;;4984590;28;20264;-71
2021/08/25 06:05:26;;;;;;;7.13;5.25;;;16.40;99.90;;;;;;4990656;28;20696;-72
2021/08/25 06:07:53;;;;;;;9.82;6.70;;;16.80;99.90;;;;;;4988127;28;20214;-71
2021/08/25 06:10:21;;;;;;;8.20;4.57;;;17.20;99.90;;;;;;4996192;28;20803;-70
2021/08/25 06:12:48;;;;;;;9.83;6.00;;;17.50;99.90;;;;;;4997098;28;20243;-70
2021/08/25 06:15:17;;;;;;;7.70;6.20;;;18.00;99.90;;;;;;4994804;28;20409;-71
2021/08/25 06:17:46;;;;;;;5.30;4.17;;;18.50;99.90;;;;;;4989679;28;20768;-72
2021/08/25 06:20:14;;;;;;;9.53;6.07;;;18.30;99.90;;;;;;4976788;28;20468;-72
2021/08/25 06:22:41;;;;;;;8.10;5.37;;;18.00;99.90;;;;;;4989706;28;20556;-71
2021/08/25 06:25:13;;;;;;;12.20;5.37;;;17.90;99.90;;;;;;4988895;28;20470;-70
2021/08/25 06:27:47;;;;;;;7.03;5.43;;;18.10;99.90;;;;;;4995057;28;20440;-71
2021/08/25 06:30:14;;;;;;;7.63;5.43;;;18.20;99.90;;;;;;4996103;28;20635;-72
2021/08/25 06:32:41;;;;;;;7.50;4.90;;;18.50;99.90;;;;;;4994003;28;20417;-72
2021/08/25 06:35:08;;;;;;;12.53;7.70;;;18.90;99.90;;;;;;4985100;28;20776;-72
2021/08/25 06:37:35;;;;;;;6.00;5.07;;;19.00;99.90;;;;;;4978983;28;20526;-71
2021/08/25 06:40:03;;;;;;;7.60;5.33;;;19.60;99.90;;;;;;4995671;28;20445;-70
2021/08/25 06:42:32;;;;;;;8.70;6.40;;;20.00;99.90;;;;;;4981290;28;20556;-71
2021/08/25 06:45:00;;;;;;;7.20;5.50;;;20.10;99.90;;;;;;4995830;28;20502;-71
2021/08/25 06:47:27;;;;;;;6.97;6.10;;;20.70;99.90;;;;;;4982423;28;20469;-72
2021/08/25 06:49:54;;;;;;;6.03;5.10;;;21.00;99.90;;;;;;4994044;28;20418;-72
2021/08/25 06:52:21;;;;;;;7.80;5.73;;;21.30;99.90;;;;;;4995028;28;20422;-71
2021/08/25 06:54:48;;;;;;;6.97;6.20;;;21.70;99.90;;;;;;4989041;28;20632;-72
2021/08/25 06:57:15;;;;;;;7.10;5.70;;;21.60;99.90;;;;;;4985711;28;20601;-72
2021/08/25 06:59:43;;;;;;;7.57;6.83;;;22.70;99.90;;;;;;4992491;28;20538;-72
2021/08/25 07:02:11;;;;;;;6.77;5.90;;;24.20;99.90;;;;;;4982287;28;20740;-70
2021/08/25 07:04:45;;;;;;;7.93;7.13;;;26.40;95.10;;;;;;4995227;28;20454;-71
2021/08/25 07:07:15;;;;;;;8.37;7.57;;;27.50;91.90;;;;;;4981681;28;20436;-72
2021/08/25 07:09:42;;;;;;;10.67;9.60;;;29.60;84.80;;;;;;4996258;28;20445;-71
2021/08/25 07:12:10;;;;;;;10.33;9.43;;;30.50;80.60;;;;;;4991295;28;20463;-70
2021/08/25 07:14:37;;;;;;;9.30;8.70;;;31.80;74.40;;;;;;4992151;28;20494;-70
2021/08/25 07:17:04;;;;;;;9.97;9.37;;;32.60;70.00;;;;;;4994963;28;20435;-72
2021/08/25 07:19:31;;;;;;;10.93;9.83;;;32.80;65.10;;;;;;4980277;28;20502;-70
2021/08/25 07:21:58;;;;;;;11.13;10.00;;;32.50;64.40;;;;;;4994211;28;20485;-71
2021/08/25 07:24:25;;;;;;;10.83;10.00;;;33.40;61.30;;;;;;4992692;28;20443;-71
2021/08/25 07:26:52;;;;;;;10.40;9.80;;;33.60;59.00;;;;;;4982923;28;20446;-71
2021/08/25 07:29:19;;;;;;;9.20;8.53;;;33.50;57.60;;;;;;4983014;28;20484;-72
2021/08/25 07:31:49;;;;;;;9.37;8.77;;;33.40;56.60;;;;;;4983722;28;20485;-70
2021/08/25 07:34:16;;;;;;;11.40;10.53;;;33.70;56.20;;;;;;4980558;28;20510;-70
2021/08/25 07:36:43;;;;;;;10.57;9.77;;;34.10;55.00;;;;;;4991121;28;20631;-71
2021/08/25 07:39:10;;;;;;;11.27;10.37;;;34.30;53.90;;;;;;4983734;28;20482;-71
2021/08/25 07:41:37;;;;;;;10.63;10.07;;;33.50;55.40;;;;;;4981303;28;20443;-70
2021/08/25 07:44:07;;;;;;;10.13;9.50;;;31.90;57.80;;;;;;4983114;28;20507;-70
2021/08/25 07:46:34;;;;;;;10.80;10.00;;;32.10;57.50;;;;;;4997714;28;20680;-70
2021/08/25 07:49:08;;;;;;;11.07;10.47;;;33.00;58.10;;;;;;4997620;28;20450;-71
2021/08/25 07:51:35;;;;;;;11.17;10.27;;;33.90;55.40;;;;;;4980326;28;20667;-70
2021/08/25 07:54:03;;;;;;;10.50;9.80;;;34.00;54.80;;;;;;4979682;28;20560;-70
2021/08/25 07:56:31;;;;;;;11.03;10.33;;;34.30;54.60;;;;;;4994129;28;20440;-71
2021/08/25 07:58:58;;;;;;;12.00;11.00;;;34.40;55.20;;;;;;4997055;28;20513;-71
2021/08/25 08:01:25;;;;;;;11.97;11.17;;;34.90;51.40;;;;;;4993842;28;20443;-71
2021/08/25 08:03:53;;;;;;;11.40;10.73;;;34.30;51.40;;;;;;4985309;28;20443;-71
2021/08/25 08:06:20;;;;;;;12.20;11.17;;;33.50;53.30;;;;;;4986718;28;20511;-71
2021/08/25 08:08:48;;;;;;;13.17;12.27;;;33.80;52.10;;;;;;4992203;28;20632;-72
2021/08/25 08:11:15;;;;;;;11.43;10.60;;;34.60;51.30;;;;;;4991943;28;20435;-72
2021/08/25 08:13:42;;;;;;;11.90;11.00;;;35.00;50.20;;;;;;4996757;28;20495;-71
2021/08/25 08:16:20;;;;;;;11.57;10.90;;;34.70;51.10;;;;;;4995218;28;20753;-71
2021/08/25 08:21:46;;;;;;;12.90;11.70;;;36.20;49.00;;;;;;4989355;28;20447;-71
2021/08/25 08:24:13;;;;;;;12.60;11.70;;;35.10;48.90;;;;;;4981386;28;20770;-70
2021/08/25 08:26:41;;;;;;;11.50;10.80;;;35.80;48.10;;;;;;4978689;28;20440;-71
2021/08/25 08:29:09;;;;;;;10.47;9.97;;;36.30;47.10;;;;;;4978432;28;20782;-72
2021/08/25 08:31:36;;;;;;;11.40;10.70;;;35.40;45.90;;;;;;4982150;28;20464;-72
2021/08/25 08:34:03;;;;;;;11.50;10.80;;;33.90;49.80;;;;;;4981121;28;20459;-71
2021/08/25 08:36:30;;;;;;;10.97;10.27;;;33.10;51.10;;;;;;4979490;28;20787;-71
2021/08/25 08:39:00;;;;;;;12.33;11.43;;;33.70;50.10;;;;;;4980797;28;20505;-70
2021/08/25 08:41:27;;;;;;;12.13;11.40;;;32.40;51.60;;;;;;4979348;28;20502;-71
2021/08/25 08:43:54;;;;;;;11.80;11.00;;;32.80;52.90;;;;;;4982365;28;20452;-72
2021/08/25 08:46:23;;;;;;;11.17;10.43;;;33.70;50.30;;;;;;4977891;28;20447;-71
2021/08/25 08:48:52;;;;;;;10.10;9.60;;;34.50;48.70;;;;;;4989786;28;20447;-70
2021/08/25 08:51:22;;;;;;;11.67;10.87;;;36.10;46.50;;;;;;4978445;28;20440;-71
2021/08/25 08:53:50;;;;;;;11.47;10.67;;;36.40;44.60;;;;;;4993037;28;20510;-72
2021/08/25 08:56:18;;;;;;;11.17;10.53;;;36.50;43.40;;;;;;4991269;28;20439;-71
2021/08/25 08:58:46;;;;;;;11.23;10.43;;;35.50;43.80;;;;;;4980635;28;20640;-71
2021/08/25 09:01:13;;;;;;;10.90;10.23;;;35.30;44.40;;;;;;4977987;28;20490;-71
2021/08/25 09:03:41;;;;;;;10.60;10.00;;;35.60;44.60;;;;;;4977261;28;20643;-71
2021/08/25 09:06:09;;;;;;;10.30;9.70;;;35.90;44.30;;;;;;4977908;28;20444;-73
2021/08/25 09:08:37;;;;;;;11.47;10.67;;;35.30;45.00;;;;;;4978704;28;20452;-70
2021/08/25 09:11:17;;;;;;;11.47;10.57;;;32.00;47.00;;;;;;4988547;28;20503;-70
2021/08/25 09:13:48;;;;;;;10.67;10.00;;;31.20;50.00;;;;;;4984291;28;20480;-71
2021/08/25 09:16:29;;;;;;;11.37;10.50;;;32.20;49.50;;;;;;4994332;28;20642;-72
2021/08/25 09:19:09;;;;;;;10.90;10.20;;;31.70;48.80;;;;;;4993000;28;20475;-71
2021/08/25 09:21:42;;;;;;;11.70;10.90;;;32.20;49.60;;;;;;4996103;28;20513;-71
2021/08/25 09:24:11;;;;;;;10.60;9.80;;;31.30;51.40;;;;;;4977951;28;20660;-72
2021/08/25 09:27:11;;;;;;;10.47;9.67;;;29.50;53.10;;;;;;4987306;28;20482;-71
2021/08/25 09:29:40;;;;;;;11.50;10.47;;;27.70;55.90;;;;;;4994764;28;20447;-70
2021/08/25 09:32:22;;;;;;;9.73;9.03;;;26.40;58.30;;;;;;4994579;28;20800;-71
2021/08/25 09:35:00;;;;;;;9.70;8.80;;;24.30;61.50;;;;;;4977985;28;20460;-70
2021/08/25 09:37:29;;;;;;;9.20;8.30;;;23.10;65.00;;;;;;4976118;28;20436;-70
2021/08/25 09:40:02;;;;;;;10.07;9.37;;;22.60;66.40;;;;;;4987948;28;20472;-71
2021/08/25 09:42:47;;;;;;;9.20;8.53;;;22.50;68.80;;;;;;4991193;28;20678;-71
2021/08/25 09:45:18;;;;;;;9.70;8.90;;;22.50;70.40;;;;;;4994334;28;20752;-73
2021/08/25 09:47:53;;;;;;;9.07;8.47;;;22.20;69.50;;;;;;4987293;28;20821;-71
2021/08/25 09:50:25;;;;;;;8.43;7.80;;;22.00;70.10;;;;;;4987785;28;20460;-70
2021/08/25 09:52:53;;;;;;;8.90;8.20;;;21.80;70.30;;;;;;4984376;28;20763;-71
2021/08/25 09:55:31;;;;;;;8.90;8.30;;;21.40;71.10;;;;;;4994123;28;20417;-70
2021/08/25 09:57:59;;;;;;;10.13;7.33;;;21.40;72.50;;;;;;4991786;28;20478;-70
2021/08/25 10:00:26;;;;;;;8.07;7.37;;;22.00;72.90;;;;;;4984977;28;20482;-70
2021/08/25 10:02:55;;;;;;;9.00;8.20;;;22.70;70.20;;;;;;4996456;28;20785;-71
2021/08/25 10:05:27;;;;;;;8.00;7.40;;;23.10;68.90;;;;;;4982353;28;20457;-70
2021/08/25 10:07:55;;;;;;;8.30;7.40;;;23.30;68.50;;;;;;4995382;28;20725;-72
2021/08/25 10:10:22;;;;;;;8.00;7.50;;;23.20;70.00;;;;;;4982636;28;20437;-71
2021/08/25 10:12:53;;;;;;;7.53;6.93;;;22.50;72.70;;;;;;4988387;28;20526;-70
2021/08/25 10:15:30;;;;;;;8.83;8.13;;;22.10;74.30;;;;;;4980232;28;20444;-70
2021/08/25 10:18:41;;;;;;;8.70;7.93;;;21.80;76.90;;;;;;4986599;28;20837;-70
2021/08/25 10:21:46;;;;;;;7.70;7.00;;;21.80;76.80;;;;;;4978250;28;20453;-71
2021/08/25 10:24:13;;;;;;;9.63;8.83;;;21.80;74.90;;;;;;4984629;28;20445;-70
2021/08/25 10:27:07;;;;;;;9.30;7.83;;;21.80;73.30;;;;;;4992840;28;20452;-71
2021/08/25 10:30:10;;;;;;;7.53;7.03;;;21.70;74.80;;;;;;4978143;28;20799;-70
2021/08/25 10:32:39;;;;;;;9.13;7.53;;;22.00;73.20;;;;;;4976883;28;20666;-71
2021/08/25 10:35:17;;;;;;;8.67;7.90;;;22.10;73.80;;;;;;4976471;28;20521;-71
2021/08/25 10:37:46;;;;;;;8.50;7.67;;;22.40;73.00;;;;;;4976865;28;20482;-69
2021/08/25 10:40:16;;;;;;;8.53;7.80;;;22.00;71.80;;;;;;4976865;28;20486;-69
2021/08/25 10:42:46;;;;;;;8.77;7.97;;;21.70;74.90;;;;;;4977073;28;20489;-71
2021/08/25 10:45:15;;;;;;;7.57;6.97;;;21.30;74.70;;;;;;4976920;28;20465;-70
2021/08/25 10:48:02;;;;;;;8.23;7.53;;;21.40;75.20;;;;;;4977363;28;20445;-73
2021/08/25 10:50:51;;;;;;;7.80;7.20;;;21.40;75.50;;;;;;4977322;28;20445;-71
2021/08/25 10:53:33;;;;;;;7.47;6.97;;;21.20;77.40;;;;;;4982574;28;20412;-70
2021/08/25 10:56:07;;;;;;;8.90;8.10;;;20.80;78.20;;;;;;4993739;28;20460;-70
2021/08/25 10:58:46;;;;;;;7.57;6.90;;;20.40;79.90;;;;;;4984458;28;21039;-70
2021/08/25 11:01:32;;;;;;;7.37;6.77;;;20.20;79.40;;;;;;4994162;28;20479;-70
2021/08/25 11:04:02;;;;;;;6.73;6.23;;;20.10;78.90;;;;;;4986917;28;20446;-71
2021/08/25 11:06:44;;;;;;;7.07;6.60;;;20.00;78.80;;;;;;4997983;28;20806;-71
2021/08/25 11:09:35;;;;;;;8.20;6.73;;;20.00;79.70;;;;;;4981875;28;20693;-71
2021/08/25 11:12:14;;;;;;;8.17;7.47;;;19.80;80.20;;;;;;4981151;28;20479;-71
2021/08/25 11:14:56;;;;;;;8.93;7.63;;;19.90;82.50;;;;;;4994253;28;20442;-69
2021/08/25 11:17:29;;;;;;;7.77;7.07;;;20.00;80.80;;;;;;4991284;28;20414;-71
2021/08/25 11:20:00;;;;;;;9.30;7.40;;;20.30;81.70;;;;;;4993712;28;20513;-69
2021/08/25 11:22:40;;;;;;;8.00;7.30;;;20.50;82.40;;;;;;4979420;28;20444;-70
2021/08/25 11:25:10;;;;;;;6.93;6.33;;;20.80;80.20;;;;;;4993902;28;20759;-70
2021/08/25 11:27:46;;;;;;;8.00;7.20;;;20.90;80.80;;;;;;4987337;28;20450;-70
2021/08/25 11:30:26;;;;;;;7.37;6.47;;;20.90;79.80;;;;;;4998554;28;20505;-70
2021/08/25 11:33:05;;;;;;;8.43;7.37;;;20.80;80.60;;;;;;4986654;28;20836;-69
2021/08/25 11:35:44;;;;;;;6.87;6.20;;;21.00;80.70;;;;;;4984366;28;20456;-70
2021/08/25 11:38:18;;;;;;;7.93;7.23;;;21.00;79.60;;;;;;4991330;28;20437;-71
2021/08/25 11:40:47;;;;;;;7.30;6.60;;;20.90;79.20;;;;;;4983320;28;20538;-70
2021/08/25 11:43:15;;;;;;;9.83;8.70;;;20.90;80.00;;;;;;4982801;28;20766;-70
2021/08/25 11:45:44;;;;;;;8.17;7.37;;;20.80;81.00;;;;;;4986444;28;20432;-70
2021/08/25 11:48:11;;;;;;;6.77;6.23;;;20.60;81.10;;;;;;4979659;28;20771;-71
2021/08/25 11:50:47;;;;;;;7.83;7.03;;;20.30;84.70;;;;;;4978863;28;20765;-70
2021/08/25 11:53:25;;;;;;;7.67;7.03;;;20.20;82.90;;;;;;4983329;28;20440;-71
2021/08/25 11:55:54;;;;;;;8.57;7.30;;;20.10;83.40;;;;;;4985780;28;20749;-70
2021/08/25 11:58:33;;;;;;;8.00;7.33;;;20.20;83.20;;;;;;4979301;28;20451;-71
2021/08/25 12:01:00;;;;;;;8.80;7.10;;;20.20;81.30;;;;;;4983510;28;20705;-69
2021/08/25 12:03:42;;;;;;;7.67;6.27;;;20.20;83.90;;;;;;4991792;28;20467;-71
2021/08/25 12:06:14;;;;;;;8.23;7.43;;;20.20;85.30;;;;;;4981767;28;21079;-70
2021/08/25 12:08:44;;;;;;;9.00;8.20;;;20.30;83.50;;;;;;4981458;28;20589;-70
2021/08/25 12:11:13;;;;;;;7.33;6.70;;;20.40;85.00;;;;;;4988063;28;20766;-71
2021/08/25 12:13:50;;;;;;;8.67;7.87;;;20.50;84.40;;;;;;4989345;28;20471;-72
2021/08/25 12:16:21;;;;;;;7.23;6.63;;;20.60;83.00;;;;;;4997691;28;20736;-70
2021/08/25 12:18:51;;;;;;;10.13;9.17;;;20.80;85.00;;;;;;4994298;28;20425;-70
2021/08/25 12:21:20;;;;;;;7.30;6.77;;;21.00;84.70;;;;;;4986821;28;20635;-71
2021/08/25 12:24:08;;;;;;;7.07;6.20;;;21.00;85.00;;;;;;4983324;28;20849;-71
2021/08/25 12:26:37;;;;;;;8.30;7.60;;;20.90;84.30;;;;;;4987843;28;20437;-70
2021/08/25 12:29:06;;;;;;;8.13;7.03;;;20.90;84.80;;;;;;4980993;28;20485;-70
2021/08/25 12:31:35;;;;;;;7.60;6.93;;;20.90;84.80;;;;;;4997187;28;20418;-71
2021/08/25 12:34:07;;;;;;;8.50;7.80;;;21.00;86.40;;;;;;4992330;28;20486;-71
2021/08/25 12:36:51;;;;;;;8.33;7.40;;;21.00;84.60;;;;;;4992805;28;20446;-71
2021/08/25 12:39:40;;;;;;;7.70;6.83;;;20.90;85.00;;;;;;4983572;28;20755;-70
2021/08/25 12:42:07;;;;;;;6.97;6.37;;;21.00;85.20;;;;;;4989266;28;20443;-71
2021/08/25 12:44:34;;;;;;;7.50;6.80;;;21.00;84.90;;;;;;4996174;28;20433;-71
2021/08/25 12:47:04;;;;;;;7.77;7.17;;;20.80;84.90;;;;;;4990083;28;20691;-70
2021/08/25 12:49:33;;;;;;;8.30;7.13;;;20.70;85.20;;;;;;4990368;28;20446;-71
2021/08/25 12:52:01;;;;;;;6.70;6.30;;;20.70;86.40;;;;;;4996831;28;20448;-70
2021/08/25 12:54:30;;;;;;;7.10;6.03;;;20.70;87.20;;;;;;4994777;28;20419;-71
2021/08/25 12:56:57;;;;;;;10.23;6.23;;;20.80;84.90;;;;;;4989127;28;20546;-70
2021/08/25 12:59:25;;;;;;;7.47;6.80;;;20.80;86.80;;;;;;4990716;28;20459;-69
2021/08/25 13:01:52;;;;;;;7.10;6.60;;;20.90;85.60;;;;;;4995184;28;20480;-70